Aérodrome :
LOGIN :

S'inscrire | Disclaimer

   EN    FR    IT 

 










Légende :    VFR   VFR Marginal   IFR   IFR Intensif   IFR Très Intensif
Visi : 
Plafond : 
>= 8 km
>= 3000ft
5 à 8 km
1000 à 3000 ft
1500m à 5 km
500 à 1000 ft
800 à 1500m
200 à 500 ft
< 800m
< 200 ft
Symboles :   Orages  Brouillard  Fortes neiges  Fortes précipitations  Vent > 20 kt
SIGMETs :   Divers  Orages  Givrage  Turbulence  Onde Orograph.  Cendres Volcan.







- Altitude de l'aérodrome : 194 ft
- Code IATA : LME
- Voir les cartes d'approche


LFRM - Le Mans

DERNIER METAR :
  • 270000Z AUTO 04009KT CAVOK 25/20 Q1020

METARs EXPIRÉS :
  • 262330Z AUTO 04009KT CAVOK 26/21 Q1020
  • 262300Z AUTO 04009KT CAVOK 26/21 Q1020
  • 262230Z AUTO 03010KT CAVOK 27/22 Q1019
  • 262200Z AUTO 03008KT CAVOK 28/22 Q1019
  • 262130Z AUTO 04008KT CAVOK 29/21 Q1019

TAF TAF LFRM
Valide du 26 à 18h jusqu'au 27 à 18h UTC


261700Z 2618/2718 09010KT CAVOK
Pas de NOTAMs connus pour ce terrain.



MET'MAP, la Météo Aéronautique d'un coup d'oeil ! - Copyright ORBIFLY Décembre 2007 - Disclaimer

ORBIFLY MET'MAP TEAM :

Programmation & Développement : Alexandra Zaïnal
Conception & Développement : Baudouin d'Aumeries
Co-Programmation & Développement : Marc-Olivier Méhu
Soutien technique & logistique : Manuel Goepfert

Contact : metmap@orbifly.com




SOURCES & CREDITS :

   NOAA